Wichita, KS (67201)

11:31 PM CST on February 10, 2016 (GMT -0600)
Indian Hills | | Change Station
CLOSE
Current Station
Personal Weather Station
Location: Wichita, KS
Elevation: 1329 ft
Nearby Weather Stations

Elev 1329 ft 37.72 °N, 97.37 °W | Updated 8 minutes ago

Clear
Clear
40.1 °F
Feels Like 40 °F
N
0.0
Wind Variable Wind from NNW

Today
High -- | Low -- °F
--% Chance of Precip.
Yesterday
High -- | Low -- °F
Precip. -- in
Pressure 30.00 in
Visibility 10.0 miles
Clouds Few 25000 ft
Windchill 40 °F
Dew Point 32 °F
Humidity 74%
Rainfall 0.00 in
Snow Depth Not available.
7:24 AM 6:02 PM
Waxing Crescent, 9% visible
METAR KICT 110453Z 35008KT 10SM FEW250 08/M01 A2998 RMK AO2 SLP157 T00831011
Pressure 30.00 in
Visibility 10.0 miles
Clouds Few 25000 ft
Windchill 40 °F
Dew Point 32 °F
Humidity 74%
Rainfall 0.00 in
Snow Depth Not available.
7:24 AM 6:02 PM
Waxing Crescent, 9% visible
METAR KICT 110453Z 35008KT 10SM FEW250 08/M01 A2998 RMK AO2 SLP157 T00831011

10-Day Weather Forecast

Almanac

Astronomy

Feb. 10, 2016 Rise Set
Actual Time
Civil Twilight
Nautical Twilight
Astronomical Twilight
Moon
Length of Visible Light
Length of Day
Tomorrow will be .
, % of the Moon is Illuminated

Today's Extremes

State Highs State Lows

Community

WunderPhotos

Upload Photos

1,892,023 photos uploaded!

WunderBlog® & News

Nearby

Air Quality

  Air Quality AQ Index Pollutant
Not available.

Snow Depth

Station Depth Elevation

Earthquake Activity

City Distance Mag. Time & Date
Minimum magnitude displayed is 2.5.

Coastal Water Temperatures

Place Temperature

Stations

Nearby Weather Stations

Station Location Temp. Windchill Dew Point Humidity Wind Precip. Elev Updated Type
                   

Watches & Warnings

There are currently no watches in effect.